首页
METAR-TAF:

METAR-TAF

机场 :

伦敦国际机场

伦敦, 安大略省, 加拿大

纬度: 43-02N, 经度: 081-09W, 海拔: 278米

当前天气观测

该预报发布于38分钟前的04:00 UTC
风速6节,风向西北
温度 0°C
湿度 93%
气压 1012 hPa
能見度: 24.1公里
多云层高于700英尺
阴天层高于1000英尺

METAR: CYXU 280400Z 31006KT 15SM BKN007 OVC010 M00/M01 A2989 RMK SF5SC3 SLP134

时间: 23:38 (04:38 UTC)

预报

该预报发布于5小时和0分钟前的23:38 UTC
预报有效从28日的 00点(UTC)到 28日的 24点(UTC)
风速8节,风向西北
能見度: 10公里
多云层高于1200英尺
阴天层高于2500英尺
短暂存在
从 28日的 00点(UTC)到 28日的 02点(UTC)
能見度: 8.0公里
阴天层高于900英尺
小雪
从 28日的 0200点(UTC)
风速8节,风向西北
能見度: 9.7公里
散云层高于600英尺
阴天层高于1500英尺
轻雾
短暂存在
从 28日的 02点(UTC)到 28日的 06点(UTC)
多云层高于600英尺
阴天层高于1500英尺
小雪, 轻雾
几率 30%
从 28日的 02点(UTC)到 28日的 06点(UTC)
阴天层高于500英尺
(小) 冻, 毛毛雨, 轻雾
从 28日的 0600点(UTC)
风速8节,风向西转西北
能見度: 10公里
多云层高于800英尺
阴天层高于2000英尺
小雪
从 28日的 1300点(UTC)
风速12节,风向西转西北
阴天层高于1200英尺
小阵雪
几率 30%
从 28日的 15点(UTC)到 28日的 20点(UTC)
能見度: 1.6公里
层高于1000英尺
小阵雪

TAF: CYXU 272338Z 2800/2824 32008KT P6SM BKN012 OVC025 TEMPO 2800/2802 5SM -SN OVC009 FM280200 31008KT 6SM BR SCT006 OVC015 TEMPO 2802/2806 21/2SM -SN BR BKN006 OVC015 PROB30 2802/2806 11/2SM -FZDZ BR OVC005 FM280600 30008KT P6SM -SN BKN008 OVC020 FM281300 29012KT 21/2SM -SHSN OVC012 PROB30 2815/2820 1SM -SHSN VV010 RMK NXT FCST BY 280600Z

超过4000个机场的气象观测和天气预报(METAR&TAF报告)。

可查询的气象台以黄色和红色小点在地图上表示。

将鼠标移到小点上方,可查看气象台名称。

然后点击查看天气观测和预报。

如需切换地图:点击带黑十字的绿色按钮放大地图;点击带横线的绿色按钮缩小地图;或者点击绿色箭头查看邻近地区的地图。


METAR-TAF: